Terminal Aerodrome Forecast
Issued by NWS

Home | Current Version | Previous Version | Text Only | Print | Product List | Glossary On
Versions: 1 2 3 4 5 6 7 8 9 10 11 12 13 14 15 16 17 18 19 20 21 22 23 24
967
FTUS46 KMTR 172341
TAFSFO
TAF
KSFO 172341Z 1800/1906 30013KT P6SM FEW005 BKN180
     FM180300 29009KT P6SM FEW005 SCT180
     FM180600 29005KT P6SM FEW005 SCT200
     FM181300 VRB03KT P6SM FEW005 SCT200
     FM181800 30005KT P6SM FEW200
     FM182100 30010KT P6SM FEW200
     FM182300 28015KT P6SM FEW200=

USA.gov is the U.S. government's official web portal to all federal, state and local government web resources and services.